sensor_id;sensor_type;location;lat;lon;timestamp;pressure;altitude;pressure_sealevel;temperature;humidity
80570;BME280;69923;50.828;4.400;2023-05-14T00:00:16;101353.91;;;13.66;78.85
80570;BME280;69923;50.828;4.400;2023-05-14T00:02:44;101343.38;;;13.77;79.00
80570;BME280;69923;50.828;4.400;2023-05-14T00:05:10;101340.38;;;13.82;78.50
80570;BME280;69923;50.828;4.400;2023-05-14T00:07:36;101345.19;;;13.77;79.52
80570;BME280;69923;50.828;4.400;2023-05-14T00:10:03;101356.91;;;13.76;79.26
80570;BME280;69923;50.828;4.400;2023-05-14T00:12:29;101357.06;;;13.73;79.37
80570;BME280;69923;50.828;4.400;2023-05-14T00:14:56;101343.56;;;13.74;79.00
80570;BME280;69923;50.828;4.400;2023-05-14T00:17:22;101347.88;;;13.77;79.06
80570;BME280;69923;50.828;4.400;2023-05-14T00:19:48;101343.47;;;13.76;78.92
80570;BME280;69923;50.828;4.400;2023-05-14T00:22:15;101348.34;;;13.69;79.62
80570;BME280;69923;50.828;4.400;2023-05-14T00:24:41;101342.31;;;13.80;79.44
80570;BME280;69923;50.828;4.400;2023-05-14T00:27:07;101345.84;;;13.66;79.06
80570;BME280;69923;50.828;4.400;2023-05-14T00:29:34;101345.09;;;13.78;79.34
80570;BME280;69923;50.828;4.400;2023-05-14T00:32:01;101339.25;;;13.72;79.51
80570;BME280;69923;50.828;4.400;2023-05-14T00:34:27;101338.66;;;13.66;79.19
80570;BME280;69923;50.828;4.400;2023-05-14T00:36:54;101341.91;;;13.57;79.63
80570;BME280;69923;50.828;4.400;2023-05-14T00:39:20;101339.44;;;13.68;79.39
80570;BME280;69923;50.828;4.400;2023-05-14T00:41:46;101335.31;;;13.63;79.40
80570;BME280;69923;50.828;4.400;2023-05-14T00:44:12;101333.75;;;13.45;79.80
80570;BME280;69923;50.828;4.400;2023-05-14T00:46:39;101332.97;;;13.57;79.77
80570;BME280;69923;50.828;4.400;2023-05-14T00:49:05;101332.50;;;13.50;79.80
80570;BME280;69923;50.828;4.400;2023-05-14T00:51:32;101331.84;;;13.47;79.77
80570;BME280;69923;50.828;4.400;2023-05-14T00:53:59;101328.84;;;13.37;80.53
80570;BME280;69923;50.828;4.400;2023-05-14T00:56:26;101327.38;;;13.32;80.59
80570;BME280;69923;50.828;4.400;2023-05-14T00:58:52;101332.56;;;13.35;80.27
80570;BME280;69923;50.828;4.400;2023-05-14T01:01:19;101336.06;;;13.51;80.25
80570;BME280;69923;50.828;4.400;2023-05-14T01:03:45;101335.41;;;13.61;79.70
80570;BME280;69923;50.828;4.400;2023-05-14T01:09:28;101328.13;;;13.63;79.70
80570;BME280;69923;50.828;4.400;2023-05-14T01:14:56;101321.75;;;13.64;79.51
80570;BME280;69923;50.828;4.400;2023-05-14T01:17:27;101334.34;;;13.64;79.71
80570;BME280;69923;50.828;4.400;2023-05-14T01:19:54;101328.00;;;13.65;79.86
80570;BME280;69923;50.828;4.400;2023-05-14T01:22:21;101320.44;;;13.72;79.08
80570;BME280;69923;50.828;4.400;2023-05-14T01:24:47;101325.53;;;13.62;79.51
80570;BME280;69923;50.828;4.400;2023-05-14T01:27:44;101324.25;;;13.53;79.60
80570;BME280;69923;50.828;4.400;2023-05-14T01:30:13;101312.16;;;13.60;79.97
80570;BME280;69923;50.828;4.400;2023-05-14T01:32:46;101315.13;;;13.56;79.60
80570;BME280;69923;50.828;4.400;2023-05-14T01:35:13;101322.06;;;13.60;79.49
80570;BME280;69923;50.828;4.400;2023-05-14T01:37:41;101320.06;;;13.63;79.79
80570;BME280;69923;50.828;4.400;2023-05-14T01:40:09;101317.81;;;13.56;79.70
80570;BME280;69923;50.828;4.400;2023-05-14T01:42:37;101323.88;;;13.59;79.41
80570;BME280;69923;50.828;4.400;2023-05-14T01:45:04;101315.53;;;13.64;79.48
80570;BME280;69923;50.828;4.400;2023-05-14T01:47:30;101316.47;;;13.49;79.67
80570;BME280;69923;50.828;4.400;2023-05-14T01:49:56;101314.47;;;13.52;79.53
80570;BME280;69923;50.828;4.400;2023-05-14T01:52:23;101311.47;;;13.43;80.09
80570;BME280;69923;50.828;4.400;2023-05-14T01:54:49;101321.38;;;13.42;80.59
80570;BME280;69923;50.828;4.400;2023-05-14T01:57:15;101322.91;;;13.46;80.32
80570;BME280;69923;50.828;4.400;2023-05-14T01:59:41;101322.53;;;13.38;80.39
80570;BME280;69923;50.828;4.400;2023-05-14T02:02:07;101321.28;;;13.44;80.48
80570;BME280;69923;50.828;4.400;2023-05-14T02:04:33;101326.06;;;13.39;80.45
80570;BME280;69923;50.828;4.400;2023-05-14T02:06:59;101327.28;;;13.33;80.21
80570;BME280;69923;50.828;4.400;2023-05-14T02:09:26;101321.19;;;13.45;79.98
80570;BME280;69923;50.828;4.400;2023-05-14T02:11:52;101323.00;;;13.31;80.56
80570;BME280;69923;50.828;4.400;2023-05-14T02:14:18;101323.47;;;13.37;80.29
80570;BME280;69923;50.828;4.400;2023-05-14T02:16:44;101316.16;;;13.39;80.44
80570;BME280;69923;50.828;4.400;2023-05-14T02:19:10;101312.66;;;13.39;80.21
80570;BME280;69923;50.828;4.400;2023-05-14T02:21:36;101314.56;;;13.51;79.80
80570;BME280;69923;50.828;4.400;2023-05-14T02:24:02;101301.22;;;13.49;79.73
80570;BME280;69923;50.828;4.400;2023-05-14T02:26:29;101308.03;;;13.41;80.36
80570;BME280;69923;50.828;4.400;2023-05-14T02:28:55;101309.19;;;13.51;79.85
80570;BME280;69923;50.828;4.400;2023-05-14T02:31:21;101306.81;;;13.46;80.05
80570;BME280;69923;50.828;4.400;2023-05-14T02:33:47;101308.78;;;13.28;80.26
80570;BME280;69923;50.828;4.400;2023-05-14T02:36:13;101313.75;;;13.20;80.81
80570;BME280;69923;50.828;4.400;2023-05-14T02:38:40;101305.00;;;13.17;81.07
80570;BME280;69923;50.828;4.400;2023-05-14T02:41:06;101304.84;;;13.34;80.65
80570;BME280;69923;50.828;4.400;2023-05-14T02:43:32;101308.22;;;13.52;79.98
80570;BME280;69923;50.828;4.400;2023-05-14T02:45:59;101304.13;;;13.46;79.86
80570;BME280;69923;50.828;4.400;2023-05-14T02:48:25;101309.19;;;13.37;80.12
80570;BME280;69923;50.828;4.400;2023-05-14T02:50:51;101307.28;;;13.39;80.21
80570;BME280;69923;50.828;4.400;2023-05-14T02:53:18;101306.88;;;13.31;80.90
80570;BME280;69923;50.828;4.400;2023-05-14T02:55:44;101306.50;;;13.37;80.60
80570;BME280;69923;50.828;4.400;2023-05-14T02:58:11;101310.22;;;13.34;80.61
80570;BME280;69923;50.828;4.400;2023-05-14T03:00:37;101309.66;;;13.29;80.41
80570;BME280;69923;50.828;4.400;2023-05-14T03:03:04;101309.13;;;13.22;80.76
80570;BME280;69923;50.828;4.400;2023-05-14T03:05:30;101309.97;;;13.39;80.14
80570;BME280;69923;50.828;4.400;2023-05-14T03:07:57;101308.31;;;13.36;80.16
80570;BME280;69923;50.828;4.400;2023-05-14T03:10:23;101307.44;;;13.36;79.85
80570;BME280;69923;50.828;4.400;2023-05-14T03:12:49;101310.22;;;13.20;80.71
80570;BME280;69923;50.828;4.400;2023-05-14T03:15:16;101307.16;;;13.40;79.84
80570;BME280;69923;50.828;4.400;2023-05-14T03:17:42;101308.03;;;13.41;79.91
80570;BME280;69923;50.828;4.400;2023-05-14T03:20:09;101299.91;;;13.12;80.15
80570;BME280;69923;50.828;4.400;2023-05-14T03:22:36;101306.44;;;13.22;80.30
80570;BME280;69923;50.828;4.400;2023-05-14T03:25:02;101306.13;;;13.13;80.42
80570;BME280;69923;50.828;4.400;2023-05-14T03:27:28;101306.06;;;13.14;81.06
80570;BME280;69923;50.828;4.400;2023-05-14T03:29:55;101306.75;;;13.18;80.51
80570;BME280;69923;50.828;4.400;2023-05-14T03:32:21;101307.91;;;13.28;80.29
80570;BME280;69923;50.828;4.400;2023-05-14T03:34:47;101299.22;;;13.39;79.98
80570;BME280;69923;50.828;4.400;2023-05-14T03:37:13;101296.13;;;13.31;79.85
80570;BME280;69923;50.828;4.400;2023-05-14T03:39:40;101302.25;;;13.33;79.90
80570;BME280;69923;50.828;4.400;2023-05-14T03:42:06;101304.38;;;13.42;79.36
80570;BME280;69923;50.828;4.400;2023-05-14T03:44:32;101299.38;;;13.36;80.10
80570;BME280;69923;50.828;4.400;2023-05-14T03:46:58;101299.78;;;13.29;79.62
80570;BME280;69923;50.828;4.400;2023-05-14T03:49:25;101301.50;;;13.31;79.62
80570;BME280;69923;50.828;4.400;2023-05-14T03:51:51;101294.75;;;13.23;80.06
80570;BME280;69923;50.828;4.400;2023-05-14T03:54:17;101287.84;;;13.19;80.39
80570;BME280;69923;50.828;4.400;2023-05-14T03:56:43;101288.34;;;13.26;80.04
80570;BME280;69923;50.828;4.400;2023-05-14T03:59:10;101287.22;;;13.30;80.21
80570;BME280;69923;50.828;4.400;2023-05-14T04:01:37;101287.22;;;13.30;79.82
80570;BME280;69923;50.828;4.400;2023-05-14T04:04:03;101285.56;;;13.27;79.86
80570;BME280;69923;50.828;4.400;2023-05-14T04:06:29;101280.19;;;13.27;79.46
80570;BME280;69923;50.828;4.400;2023-05-14T04:08:56;101278.66;;;13.23;79.93
80570;BME280;69923;50.828;4.400;2023-05-14T04:11:23;101270.63;;;13.08;80.46
80570;BME280;69923;50.828;4.400;2023-05-14T04:13:49;101279.22;;;12.99;80.59
80570;BME280;69923;50.828;4.400;2023-05-14T04:16:15;101283.75;;;13.14;80.35
80570;BME280;69923;50.828;4.400;2023-05-14T04:18:41;101277.03;;;13.21;79.79
80570;BME280;69923;50.828;4.400;2023-05-14T04:21:07;101282.44;;;13.05;80.50
80570;BME280;69923;50.828;4.400;2023-05-14T04:23:34;101276.59;;;13.13;80.17
80570;BME280;69923;50.828;4.400;2023-05-14T04:26:00;101277.28;;;13.16;80.18
80570;BME280;69923;50.828;4.400;2023-05-14T04:28:26;101274.44;;;13.19;79.69
80570;BME280;69923;50.828;4.400;2023-05-14T04:30:52;101272.31;;;13.24;79.78
80570;BME280;69923;50.828;4.400;2023-05-14T04:33:18;101274.44;;;13.19;79.69
80570;BME280;69923;50.828;4.400;2023-05-14T04:35:45;101281.94;;;13.28;79.70
80570;BME280;69923;50.828;4.400;2023-05-14T04:38:11;101279.25;;;13.28;79.42
80570;BME280;69923;50.828;4.400;2023-05-14T04:40:39;101273.00;;;13.28;79.41
80570;BME280;69923;50.828;4.400;2023-05-14T04:43:06;101274.66;;;13.31;79.60
80570;BME280;69923;50.828;4.400;2023-05-14T04:45:33;101270.13;;;13.31;79.16
80570;BME280;69923;50.828;4.400;2023-05-14T04:47:59;101265.44;;;13.35;79.37
80570;BME280;69923;50.828;4.400;2023-05-14T04:50:25;101266.28;;;13.21;79.64
80570;BME280;69923;50.828;4.400;2023-05-14T04:52:51;101264.75;;;13.31;79.25
80570;BME280;69923;50.828;4.400;2023-05-14T04:55:18;101272.63;;;13.48;78.63
80570;BME280;69923;50.828;4.400;2023-05-14T04:57:44;101280.97;;;13.44;78.92
80570;BME280;69923;50.828;4.400;2023-05-14T05:00:11;101283.44;;;13.18;79.13
80570;BME280;69923;50.828;4.400;2023-05-14T05:02:38;101278.00;;;13.34;79.09
80570;BME280;69923;50.828;4.400;2023-05-14T05:05:04;101281.72;;;13.32;79.89
80570;BME280;69923;50.828;4.400;2023-05-14T05:07:30;101279.19;;;13.14;79.18
80570;BME280;69923;50.828;4.400;2023-05-14T05:09:56;101286.75;;;13.38;78.78
80570;BME280;69923;50.828;4.400;2023-05-14T05:12:23;101280.28;;;13.40;79.19
80570;BME280;69923;50.828;4.400;2023-05-14T05:14:49;101278.50;;;13.55;78.49
80570;BME280;69923;50.828;4.400;2023-05-14T05:17:15;101285.22;;;13.62;78.12
80570;BME280;69923;50.828;4.400;2023-05-14T05:19:41;101295.75;;;13.65;78.04
80570;BME280;69923;50.828;4.400;2023-05-14T05:22:08;101286.94;;;13.63;78.29
80570;BME280;69923;50.828;4.400;2023-05-14T05:24:34;101297.22;;;13.71;77.51
80570;BME280;69923;50.828;4.400;2023-05-14T05:27:00;101294.88;;;13.64;77.03
80570;BME280;69923;50.828;4.400;2023-05-14T05:29:26;101288.28;;;13.70;77.33
80570;BME280;69923;50.828;4.400;2023-05-14T05:31:52;101292.31;;;13.63;76.92
80570;BME280;69923;50.828;4.400;2023-05-14T05:34:19;101295.19;;;13.88;76.38
80570;BME280;69923;50.828;4.400;2023-05-14T05:36:45;101291.03;;;13.97;76.38
80570;BME280;69923;50.828;4.400;2023-05-14T05:39:12;101294.47;;;13.99;75.61
80570;BME280;69923;50.828;4.400;2023-05-14T05:41:38;101294.97;;;13.91;76.15
80570;BME280;69923;50.828;4.400;2023-05-14T05:44:05;101295.34;;;13.99;76.32
80570;BME280;69923;50.828;4.400;2023-05-14T05:46:31;101295.75;;;13.93;76.59
80570;BME280;69923;50.828;4.400;2023-05-14T05:48:58;101295.44;;;13.98;75.74
80570;BME280;69923;50.828;4.400;2023-05-14T05:51:24;101301.88;;;14.10;76.21
80570;BME280;69923;50.828;4.400;2023-05-14T05:53:51;101303.59;;;14.11;75.93
80570;BME280;69923;50.828;4.400;2023-05-14T05:56:17;101307.25;;;14.10;75.55
80570;BME280;69923;50.828;4.400;2023-05-14T05:58:43;101306.28;;;14.11;75.37
80570;BME280;69923;50.828;4.400;2023-05-14T06:01:10;101306.47;;;14.07;75.79
80570;BME280;69923;50.828;4.400;2023-05-14T06:03:36;101313.56;;;14.09;75.31
80570;BME280;69923;50.828;4.400;2023-05-14T06:06:02;101314.91;;;14.16;75.28
80570;BME280;69923;50.828;4.400;2023-05-14T06:08:28;101314.03;;;14.15;75.52
80570;BME280;69923;50.828;4.400;2023-05-14T06:10:55;101311.34;;;14.15;75.03
80570;BME280;69923;50.828;4.400;2023-05-14T06:13:21;101315.50;;;14.21;75.10
80570;BME280;69923;50.828;4.400;2023-05-14T06:15:47;101320.00;;;14.20;75.26
80570;BME280;69923;50.828;4.400;2023-05-14T06:18:13;101311.78;;;14.36;74.39
80570;BME280;69923;50.828;4.400;2023-05-14T06:20:39;101317.78;;;14.27;74.28
80570;BME280;69923;50.828;4.400;2023-05-14T06:23:06;101324.91;;;14.14;75.15
80570;BME280;69923;50.828;4.400;2023-05-14T06:25:33;101320.88;;;14.06;75.16
80570;BME280;69923;50.828;4.400;2023-05-14T06:27:59;101311.06;;;14.20;75.13
80570;BME280;69923;50.828;4.400;2023-05-14T06:30:26;101312.38;;;14.27;74.30
80570;BME280;69923;50.828;4.400;2023-05-14T06:32:54;101302.38;;;14.43;73.33
80570;BME280;69923;50.828;4.400;2023-05-14T06:35:22;101313.56;;;14.64;73.61
80570;BME280;69923;50.828;4.400;2023-05-14T06:37:51;101311.09;;;14.73;73.23
80570;BME280;69923;50.828;4.400;2023-05-14T06:40:18;101321.13;;;14.71;72.39
80570;BME280;69923;50.828;4.400;2023-05-14T06:42:44;101316.97;;;14.53;72.92
80570;BME280;69923;50.828;4.400;2023-05-14T06:45:10;101319.44;;;14.56;72.91
80570;BME280;69923;50.828;4.400;2023-05-14T06:47:37;101316.84;;;14.81;72.33
80570;BME280;69923;50.828;4.400;2023-05-14T06:50:03;101311.09;;;14.73;71.93
80570;BME280;69923;50.828;4.400;2023-05-14T06:52:29;101319.06;;;14.62;71.98
80570;BME280;69923;50.828;4.400;2023-05-14T06:54:55;101322.50;;;14.64;73.01
80570;BME280;69923;50.828;4.400;2023-05-14T06:57:22;101317.59;;;14.57;73.31
80570;BME280;69923;50.828;4.400;2023-05-14T06:59:48;101309.88;;;14.38;73.67
80570;BME280;69923;50.828;4.400;2023-05-14T07:02:14;101313.66;;;14.21;74.66
80570;BME280;69923;50.828;4.400;2023-05-14T07:04:40;101319.88;;;14.36;74.14
80570;BME280;69923;50.828;4.400;2023-05-14T07:07:06;101325.22;;;14.50;74.01
80570;BME280;69923;50.828;4.400;2023-05-14T07:09:33;101325.59;;;14.58;73.24
80570;BME280;69923;50.828;4.400;2023-05-14T07:11:59;101326.09;;;14.51;72.49
80570;BME280;69923;50.828;4.400;2023-05-14T07:14:25;101326.56;;;14.57;72.14
80570;BME280;69923;50.828;4.400;2023-05-14T07:16:51;101324.19;;;14.79;71.60
80570;BME280;69923;50.828;4.400;2023-05-14T07:19:17;101327.75;;;14.93;71.89
80570;BME280;69923;50.828;4.400;2023-05-14T07:21:44;101329.22;;;14.71;72.39
80570;BME280;69923;50.828;4.400;2023-05-14T07:24:11;101333.56;;;14.60;72.75
80570;BME280;69923;50.828;4.400;2023-05-14T07:26:37;101323.47;;;14.63;72.96
80570;BME280;69923;50.828;4.400;2023-05-14T07:29:04;101327.69;;;14.67;72.94
80570;BME280;69923;50.828;4.400;2023-05-14T07:31:30;101328.47;;;14.82;71.75
80570;BME280;69923;50.828;4.400;2023-05-14T07:33:56;101333.00;;;14.81;71.54
80570;BME280;69923;50.828;4.400;2023-05-14T07:36:22;101328.69;;;14.79;72.19
80570;BME280;69923;50.828;4.400;2023-05-14T07:38:49;101331.50;;;14.77;72.18
80570;BME280;69923;50.828;4.400;2023-05-14T07:41:15;101333.81;;;14.69;72.14
80570;BME280;69923;50.828;4.400;2023-05-14T07:43:41;101323.94;;;14.70;71.95
80570;BME280;69923;50.828;4.400;2023-05-14T07:46:07;101324.72;;;14.85;72.04
80570;BME280;69923;50.828;4.400;2023-05-14T07:48:33;101314.09;;;14.96;70.86
80570;BME280;69923;50.828;4.400;2023-05-14T07:51:00;101314.72;;;14.99;71.21
80570;BME280;69923;50.828;4.400;2023-05-14T07:53:26;101318.44;;;15.11;70.31
80570;BME280;69923;50.828;4.400;2023-05-14T07:55:52;101316.06;;;15.19;70.95
80570;BME280;69923;50.828;4.400;2023-05-14T07:58:19;101317.59;;;15.36;70.14
80570;BME280;69923;50.828;4.400;2023-05-14T08:00:46;101317.19;;;15.29;68.72
80570;BME280;69923;50.828;4.400;2023-05-14T08:03:12;101314.91;;;15.36;69.35
80570;BME280;69923;50.828;4.400;2023-05-14T08:05:38;101321.81;;;15.52;69.81
80570;BME280;69923;50.828;4.400;2023-05-14T08:08:05;101312.81;;;15.53;68.55
80570;BME280;69923;50.828;4.400;2023-05-14T08:10:31;101319.34;;;15.75;68.65
80570;BME280;69923;50.828;4.400;2023-05-14T08:12:57;101319.38;;;15.62;68.75
80570;BME280;69923;50.828;4.400;2023-05-14T08:15:23;101320.63;;;15.31;68.60
80570;BME280;69923;50.828;4.400;2023-05-14T08:17:50;101315.28;;;15.69;68.31
80570;BME280;69923;50.828;4.400;2023-05-14T08:20:16;101305.78;;;16.25;67.02
80570;BME280;69923;50.828;4.400;2023-05-14T08:22:42;101307.81;;;16.58;66.07
80570;BME280;69923;50.828;4.400;2023-05-14T08:25:08;101314.91;;;16.48;66.25
80570;BME280;69923;50.828;4.400;2023-05-14T08:27:35;101312.28;;;16.23;67.41
80570;BME280;69923;50.828;4.400;2023-05-14T08:30:01;101315.78;;;16.36;66.91
80570;BME280;69923;50.828;4.400;2023-05-14T08:32:28;101320.47;;;16.21;66.92
80570;BME280;69923;50.828;4.400;2023-05-14T08:34:54;101322.47;;;16.07;67.55
80570;BME280;69923;50.828;4.400;2023-05-14T08:37:20;101320.88;;;15.79;67.58
80570;BME280;69923;50.828;4.400;2023-05-14T08:39:46;101318.31;;;15.65;68.51
80570;BME280;69923;50.828;4.400;2023-05-14T08:42:13;101326.28;;;15.79;68.61
80570;BME280;69923;50.828;4.400;2023-05-14T08:44:56;101318.59;;;15.85;68.21
80570;BME280;69923;50.828;4.400;2023-05-14T08:47:25;101325.47;;;16.02;66.86
80570;BME280;69923;50.828;4.400;2023-05-14T08:52:27;101317.72;;;16.34;66.94
80570;BME280;69923;50.828;4.400;2023-05-14T08:54:53;101316.88;;;16.57;66.15
80570;BME280;69923;50.828;4.400;2023-05-14T08:57:22;101306.59;;;17.10;64.87
80570;BME280;69923;50.828;4.400;2023-05-14T08:59:51;101304.16;;;17.75;62.19
80570;BME280;69923;50.828;4.400;2023-05-14T09:02:22;101312.28;;;17.98;60.04
80570;BME280;69923;50.828;4.400;2023-05-14T09:04:54;101307.81;;;18.30;59.63
80570;BME280;69923;50.828;4.400;2023-05-14T09:07:21;101300.56;;;18.08;60.40
80570;BME280;69923;50.828;4.400;2023-05-14T09:09:47;101304.88;;;18.22;59.49
80570;BME280;69923;50.828;4.400;2023-05-14T09:12:14;101306.31;;;18.48;58.89
80570;BME280;69923;50.828;4.400;2023-05-14T09:14:40;101299.31;;;18.35;58.51
80570;BME280;69923;50.828;4.400;2023-05-14T09:17:07;101305.88;;;19.07;57.45
80570;BME280;69923;50.828;4.400;2023-05-14T09:19:33;101296.19;;;20.07;53.37
80570;BME280;69923;50.828;4.400;2023-05-14T09:22:00;101292.84;;;20.43;52.52
80570;BME280;69923;50.828;4.400;2023-05-14T09:24:27;101288.06;;;20.26;52.47
80570;BME280;69923;50.828;4.400;2023-05-14T09:26:56;101292.44;;;19.68;55.12
80570;BME280;69923;50.828;4.400;2023-05-14T09:29:27;101296.69;;;19.40;56.44
80570;BME280;69923;50.828;4.400;2023-05-14T09:31:54;101296.41;;;19.94;54.19
80570;BME280;69923;50.828;4.400;2023-05-14T09:34:31;101282.97;;;20.33;54.63
80570;BME280;69923;50.828;4.400;2023-05-14T09:37:02;101284.00;;;20.51;51.95
80570;BME280;69923;50.828;4.400;2023-05-14T09:39:28;101282.84;;;21.50;49.72
80570;BME280;69923;50.828;4.400;2023-05-14T09:41:55;101279.53;;;25.05;41.85
80570;BME280;69923;50.828;4.400;2023-05-14T09:44:22;101281.34;;;27.46;35.52
80570;BME280;69923;50.828;4.400;2023-05-14T09:46:49;101284.31;;;29.05;33.41
80570;BME280;69923;50.828;4.400;2023-05-14T09:49:16;101278.19;;;28.02;34.81
80570;BME280;69923;50.828;4.400;2023-05-14T09:51:42;101282.09;;;28.37;33.16
80570;BME280;69923;50.828;4.400;2023-05-14T09:54:09;101276.50;;;27.86;33.58
80570;BME280;69923;50.828;4.400;2023-05-14T09:56:36;101272.47;;;29.32;31.85
80570;BME280;69923;50.828;4.400;2023-05-14T09:59:03;101275.34;;;29.73;31.52
80570;BME280;69923;50.828;4.400;2023-05-14T10:01:30;101259.88;;;30.07;29.23
80570;BME280;69923;50.828;4.400;2023-05-14T10:03:58;101274.44;;;31.16;28.83
80570;BME280;69923;50.828;4.400;2023-05-14T10:06:35;101272.25;;;30.78;29.63
80570;BME280;69923;50.828;4.400;2023-05-14T10:09:04;101265.81;;;29.20;31.91
80570;BME280;69923;50.828;4.400;2023-05-14T10:11:37;101267.25;;;30.47;30.04
80570;BME280;69923;50.828;4.400;2023-05-14T10:14:07;101271.13;;;29.22;31.94
80570;BME280;69923;50.828;4.400;2023-05-14T10:16:39;101264.34;;;26.37;36.65
80570;BME280;69923;50.828;4.400;2023-05-14T10:19:12;101260.13;;;29.00;33.17
80570;BME280;69923;50.828;4.400;2023-05-14T10:21:40;101253.88;;;29.97;29.75
80570;BME280;69923;50.828;4.400;2023-05-14T10:24:09;101254.84;;;30.91;29.36
80570;BME280;69923;50.828;4.400;2023-05-14T10:26:38;101255.03;;;31.82;27.83
80570;BME280;69923;50.828;4.400;2023-05-14T10:29:06;101259.75;;;32.39;27.33
80570;BME280;69923;50.828;4.400;2023-05-14T10:31:53;101253.63;;;32.68;25.83
80570;BME280;69923;50.828;4.400;2023-05-14T10:34:40;101267.53;;;33.49;26.02
80570;BME280;69923;50.828;4.400;2023-05-14T10:37:13;101254.38;;;33.88;24.91
80570;BME280;69923;50.828;4.400;2023-05-14T10:39:59;101252.56;;;34.78;23.80
80570;BME280;69923;50.828;4.400;2023-05-14T10:42:32;101249.19;;;34.28;24.65
80570;BME280;69923;50.828;4.400;2023-05-14T10:45:05;101242.78;;;34.09;25.38
80570;BME280;69923;50.828;4.400;2023-05-14T10:47:40;101247.56;;;34.69;24.42
80570;BME280;69923;50.828;4.400;2023-05-14T10:50:10;101247.56;;;34.69;22.70
80570;BME280;69923;50.828;4.400;2023-05-14T10:52:37;101239.09;;;32.80;24.16
80570;BME280;69923;50.828;4.400;2023-05-14T10:55:06;101236.06;;;34.95;23.17
80570;BME280;69923;50.828;4.400;2023-05-14T10:57:35;101236.91;;;34.95;23.37
80570;BME280;69923;50.828;4.400;2023-05-14T11:00:02;101238.00;;;34.16;24.80
80570;BME280;69923;50.828;4.400;2023-05-14T11:02:33;101230.81;;;34.09;23.92
80570;BME280;69923;50.828;4.400;2023-05-14T11:07:45;101230.06;;;34.38;24.00
80570;BME280;69923;50.828;4.400;2023-05-14T11:10:14;101228.34;;;34.37;23.69
80570;BME280;69923;50.828;4.400;2023-05-14T11:12:42;101223.38;;;34.69;22.85
80570;BME280;69923;50.828;4.400;2023-05-14T11:15:10;101218.41;;;34.11;22.40
80570;BME280;69923;50.828;4.400;2023-05-14T11:17:38;101211.28;;;35.17;22.50
80570;BME280;69923;50.828;4.400;2023-05-14T11:20:05;101215.41;;;34.61;23.15
80570;BME280;69923;50.828;4.400;2023-05-14T11:22:34;101213.13;;;35.11;22.74
80570;BME280;69923;50.828;4.400;2023-05-14T11:25:00;101207.78;;;35.68;22.27
80570;BME280;69923;50.828;4.400;2023-05-14T11:27:26;101214.22;;;35.68;22.55
80570;BME280;69923;50.828;4.400;2023-05-14T11:29:53;101211.22;;;35.47;22.14
80570;BME280;69923;50.828;4.400;2023-05-14T11:32:21;101207.22;;;35.43;22.30
80570;BME280;69923;50.828;4.400;2023-05-14T11:34:47;101186.97;;;35.00;22.23
80570;BME280;69923;50.828;4.400;2023-05-14T11:37:15;101196.31;;;35.18;23.13
80570;BME280;69923;50.828;4.400;2023-05-14T11:39:49;101188.84;;;35.30;22.76
80570;BME280;69923;50.828;4.400;2023-05-14T11:42:16;101186.94;;;34.77;22.83
80570;BME280;69923;50.828;4.400;2023-05-14T11:44:45;101178.19;;;33.84;23.42
80570;BME280;69923;50.828;4.400;2023-05-14T11:47:12;101184.41;;;34.76;23.88
80570;BME280;69923;50.828;4.400;2023-05-14T11:49:38;101180.84;;;35.22;24.01
80570;BME280;69923;50.828;4.400;2023-05-14T11:52:07;101183.28;;;35.30;23.76
80570;BME280;69923;50.828;4.400;2023-05-14T11:54:34;101181.59;;;35.29;23.04
80570;BME280;69923;50.828;4.400;2023-05-14T11:57:06;101183.75;;;35.27;22.73
80570;BME280;69923;50.828;4.400;2023-05-14T11:59:32;101171.34;;;34.35;23.99
80570;BME280;69923;50.828;4.400;2023-05-14T12:01:59;101173.50;;;35.39;21.55
80570;BME280;69923;50.828;4.400;2023-05-14T12:04:25;101181.63;;;35.92;22.29
80570;BME280;69923;50.828;4.400;2023-05-14T12:06:52;101179.28;;;36.12;21.29
80570;BME280;69923;50.828;4.400;2023-05-14T12:09:19;101175.88;;;36.22;21.02
80570;BME280;69923;50.828;4.400;2023-05-14T12:11:47;101167.47;;;36.79;21.36
80570;BME280;69923;50.828;4.400;2023-05-14T12:16:44;101164.72;;;36.22;21.58
80570;BME280;69923;50.828;4.400;2023-05-14T12:19:14;101164.03;;;35.52;22.70
80570;BME280;69923;50.828;4.400;2023-05-14T12:21:43;101154.91;;;34.15;23.44
80570;BME280;69923;50.828;4.400;2023-05-14T12:24:14;101164.72;;;34.77;23.58
80570;BME280;69923;50.828;4.400;2023-05-14T12:26:48;101158.91;;;34.90;23.97
80570;BME280;69923;50.828;4.400;2023-05-14T12:29:16;101160.53;;;35.33;23.27
80570;BME280;69923;50.828;4.400;2023-05-14T12:31:49;101151.44;;;34.79;23.51
80570;BME280;69923;50.828;4.400;2023-05-14T12:34:16;101149.75;;;34.18;24.22
80570;BME280;69923;50.828;4.400;2023-05-14T12:36:43;101148.03;;;34.06;24.59
80570;BME280;69923;50.828;4.400;2023-05-14T12:39:09;101141.97;;;33.17;24.43
80570;BME280;69923;50.828;4.400;2023-05-14T12:41:37;101143.91;;;33.17;25.34
80570;BME280;69923;50.828;4.400;2023-05-14T12:44:04;101138.19;;;33.12;25.80
80570;BME280;69923;50.828;4.400;2023-05-14T12:46:31;101133.16;;;32.21;25.62
80570;BME280;69923;50.828;4.400;2023-05-14T12:48:57;101129.63;;;33.38;24.96
80570;BME280;69923;50.828;4.400;2023-05-14T12:51:24;101131.78;;;33.36;25.93
80570;BME280;69923;50.828;4.400;2023-05-14T12:53:50;101121.31;;;33.75;25.11
80570;BME280;69923;50.828;4.400;2023-05-14T12:56:19;101112.81;;;33.88;25.29
80570;BME280;69923;50.828;4.400;2023-05-14T12:58:46;101124.47;;;33.78;24.73
80570;BME280;69923;50.828;4.400;2023-05-14T13:01:12;101108.09;;;34.18;24.70
80570;BME280;69923;50.828;4.400;2023-05-14T13:03:39;101109.63;;;34.33;24.77